sensor_id;sensor_type;location;lat;lon;timestamp;P1;durP1;ratioP1;P2;durP2;ratioP2
57327;SDS011;43162;51.040;18.244;2023-05-24T03:53:27;22.30;;;14.50;;
57327;SDS011;43162;51.040;18.244;2023-05-24T03:58:29;17.30;;;11.30;;
57327;SDS011;43162;51.040;18.244;2023-05-24T08:10:59;0.60;;;0.30;;
57327;SDS011;43162;51.040;18.244;2023-05-24T10:56:41;8.90;;;3.50;;
57327;SDS011;43162;51.040;18.244;2023-05-24T11:02:05;11.90;;;3.00;;
57327;SDS011;43162;51.040;18.244;2023-05-24T11:18:22;8.00;;;4.40;;
57327;SDS011;43162;51.040;18.244;2023-05-24T11:20:48;11.90;;;4.90;;
57327;SDS011;43162;51.040;18.244;2023-05-24T11:23:14;8.70;;;4.30;;
57327;SDS011;43162;51.040;18.244;2023-05-24T11:25:40;9.40;;;3.50;;
57327;SDS011;43162;51.040;18.244;2023-05-24T11:28:06;11.30;;;4.80;;
57327;SDS011;43162;51.040;18.244;2023-05-24T11:30:33;11.40;;;4.30;;
57327;SDS011;43162;51.040;18.244;2023-05-24T11:32:58;13.20;;;4.40;;
57327;SDS011;43162;51.040;18.244;2023-05-24T11:35:26;10.80;;;4.70;;
57327;SDS011;43162;51.040;18.244;2023-05-24T11:37:55;10.90;;;4.40;;
57327;SDS011;43162;51.040;18.244;2023-05-24T11:40:21;8.70;;;4.30;;
57327;SDS011;43162;51.040;18.244;2023-05-24T11:42:49;11.80;;;4.60;;
57327;SDS011;43162;51.040;18.244;2023-05-24T11:45:14;9.30;;;4.70;;
57327;SDS011;43162;51.040;18.244;2023-05-24T11:47:43;10.40;;;5.10;;
57327;SDS011;43162;51.040;18.244;2023-05-24T11:50:09;5.90;;;3.70;;
57327;SDS011;43162;51.040;18.244;2023-05-24T11:52:38;7.90;;;3.50;;
57327;SDS011;43162;51.040;18.244;2023-05-24T11:55:05;13.50;;;5.20;;
57327;SDS011;43162;51.040;18.244;2023-05-24T11:57:53;10.50;;;4.10;;
57327;SDS011;43162;51.040;18.244;2023-05-24T12:00:25;8.10;;;3.80;;
57327;SDS011;43162;51.040;18.244;2023-05-24T12:02:50;8.80;;;3.40;;
57327;SDS011;43162;51.040;18.244;2023-05-24T12:05:17;8.70;;;3.90;;
57327;SDS011;43162;51.040;18.244;2023-05-24T12:07:43;12.50;;;4.50;;
57327;SDS011;43162;51.040;18.244;2023-05-24T12:10:15;10.60;;;4.60;;
57327;SDS011;43162;51.040;18.244;2023-05-24T12:12:44;8.80;;;3.80;;
57327;SDS011;43162;51.040;18.244;2023-05-24T12:59:43;9.00;;;3.30;;
57327;SDS011;43162;51.040;18.244;2023-05-24T13:08:28;8.20;;;3.70;;
57327;SDS011;43162;51.040;18.244;2023-05-24T13:30:18;6.20;;;3.00;;
57327;SDS011;43162;51.040;18.244;2023-05-24T13:38:01;9.30;;;3.10;;
57327;SDS011;43162;51.040;18.244;2023-05-24T13:40:28;8.70;;;3.30;;
57327;SDS011;43162;51.040;18.244;2023-05-24T13:42:55;11.40;;;3.60;;
57327;SDS011;43162;51.040;18.244;2023-05-24T13:45:21;8.60;;;3.20;;
57327;SDS011;43162;51.040;18.244;2023-05-24T13:53:12;11.50;;;4.80;;
57327;SDS011;43162;51.040;18.244;2023-05-24T13:55:37;6.40;;;3.20;;
57327;SDS011;43162;51.040;18.244;2023-05-24T13:58:03;6.60;;;3.50;;
57327;SDS011;43162;51.040;18.244;2023-05-24T14:00:29;6.70;;;3.30;;
57327;SDS011;43162;51.040;18.244;2023-05-24T14:02:55;6.90;;;3.60;;
57327;SDS011;43162;51.040;18.244;2023-05-24T14:05:21;5.70;;;3.10;;
57327;SDS011;43162;51.040;18.244;2023-05-24T14:07:47;7.60;;;3.20;;
57327;SDS011;43162;51.040;18.244;2023-05-24T14:10:13;6.10;;;3.40;;
57327;SDS011;43162;51.040;18.244;2023-05-24T14:12:38;9.30;;;3.50;;
57327;SDS011;43162;51.040;18.244;2023-05-24T14:15:04;8.20;;;3.30;;
57327;SDS011;43162;51.040;18.244;2023-05-24T14:17:30;6.60;;;3.20;;
57327;SDS011;43162;51.040;18.244;2023-05-24T14:19:56;5.20;;;3.30;;
57327;SDS011;43162;51.040;18.244;2023-05-24T14:22:21;11.30;;;3.60;;
57327;SDS011;43162;51.040;18.244;2023-05-24T14:24:49;7.30;;;3.30;;
57327;SDS011;43162;51.040;18.244;2023-05-24T14:27:14;9.20;;;4.20;;
57327;SDS011;43162;51.040;18.244;2023-05-24T14:29:40;8.50;;;4.40;;
57327;SDS011;43162;51.040;18.244;2023-05-24T14:32:06;13.20;;;3.60;;
57327;SDS011;43162;51.040;18.244;2023-05-24T14:34:32;10.10;;;4.20;;
57327;SDS011;43162;51.040;18.244;2023-05-24T14:36:57;11.90;;;4.10;;
57327;SDS011;43162;51.040;18.244;2023-05-24T14:39:23;11.70;;;4.00;;
57327;SDS011;43162;51.040;18.244;2023-05-24T14:41:49;7.60;;;3.60;;
57327;SDS011;43162;51.040;18.244;2023-05-24T14:44:14;13.50;;;3.80;;
57327;SDS011;43162;51.040;18.244;2023-05-24T15:01:35;8.60;;;3.60;;
57327;SDS011;43162;51.040;18.244;2023-05-24T15:04:01;8.30;;;4.10;;
57327;SDS011;43162;51.040;18.244;2023-05-24T15:06:28;7.60;;;3.60;;
57327;SDS011;43162;51.040;18.244;2023-05-24T15:08:59;7.30;;;4.20;;
57327;SDS011;43162;51.040;18.244;2023-05-24T15:11:25;7.90;;;4.20;;
57327;SDS011;43162;51.040;18.244;2023-05-24T15:13:50;5.10;;;4.30;;
57327;SDS011;43162;51.040;18.244;2023-05-24T15:16:19;10.50;;;4.30;;
57327;SDS011;43162;51.040;18.244;2023-05-24T15:18:45;7.10;;;4.10;;
57327;SDS011;43162;51.040;18.244;2023-05-24T15:21:10;10.70;;;4.80;;
57327;SDS011;43162;51.040;18.244;2023-05-24T15:56:18;8.70;;;4.60;;
57327;SDS011;43162;51.040;18.244;2023-05-24T15:58:44;3.40;;;2.80;;
57327;SDS011;43162;51.040;18.244;2023-05-24T16:01:10;7.10;;;4.10;;
57327;SDS011;43162;51.040;18.244;2023-05-24T16:03:35;8.80;;;4.70;;
57327;SDS011;43162;51.040;18.244;2023-05-24T16:06:02;7.50;;;5.30;;
57327;SDS011;43162;51.040;18.244;2023-05-24T16:08:28;9.90;;;5.10;;
57327;SDS011;43162;51.040;18.244;2023-05-24T16:10:54;13.60;;;5.40;;
57327;SDS011;43162;51.040;18.244;2023-05-24T16:22:17;3.80;;;2.80;;
57327;SDS011;43162;51.040;18.244;2023-05-24T18:15:30;16.00;;;8.10;;
57327;SDS011;43162;51.040;18.244;2023-05-24T18:41:59;12.80;;;6.90;;
57327;SDS011;43162;51.040;18.244;2023-05-24T18:47:13;16.10;;;8.30;;
57327;SDS011;43162;51.040;18.244;2023-05-24T18:49:38;21.10;;;10.90;;
57327;SDS011;43162;51.040;18.244;2023-05-24T19:15:37;14.70;;;6.80;;
57327;SDS011;43162;51.040;18.244;2023-05-24T19:18:02;17.80;;;7.40;;
57327;SDS011;43162;51.040;18.244;2023-05-24T19:20:28;12.10;;;7.20;;
57327;SDS011;43162;51.040;18.244;2023-05-24T19:22:54;13.30;;;7.00;;
57327;SDS011;43162;51.040;18.244;2023-05-24T19:25:19;13.90;;;8.30;;
57327;SDS011;43162;51.040;18.244;2023-05-24T19:27:45;14.10;;;6.90;;
57327;SDS011;43162;51.040;18.244;2023-05-24T19:30:13;15.90;;;9.10;;
57327;SDS011;43162;51.040;18.244;2023-05-24T19:32:39;14.80;;;9.40;;
57327;SDS011;43162;51.040;18.244;2023-05-24T19:35:04;15.30;;;9.30;;
57327;SDS011;43162;51.040;18.244;2023-05-24T19:37:30;15.70;;;9.30;;
57327;SDS011;43162;51.040;18.244;2023-05-24T19:39:55;17.10;;;9.20;;
57327;SDS011;43162;51.040;18.244;2023-05-24T19:42:22;16.40;;;8.80;;
57327;SDS011;43162;51.040;18.244;2023-05-24T19:44:48;17.70;;;9.20;;
57327;SDS011;43162;51.040;18.244;2023-05-24T19:47:13;15.60;;;7.40;;
57327;SDS011;43162;51.040;18.244;2023-05-24T19:49:39;11.50;;;7.60;;
57327;SDS011;43162;51.040;18.244;2023-05-24T19:52:04;10.10;;;8.50;;
57327;SDS011;43162;51.040;18.244;2023-05-24T19:54:30;16.70;;;9.40;;
57327;SDS011;43162;51.040;18.244;2023-05-24T19:56:55;17.50;;;8.40;;
57327;SDS011;43162;51.040;18.244;2023-05-24T19:59:21;18.50;;;9.30;;
57327;SDS011;43162;51.040;18.244;2023-05-24T20:01:47;22.80;;;8.80;;
57327;SDS011;43162;51.040;18.244;2023-05-24T20:04:12;17.60;;;9.30;;
57327;SDS011;43162;51.040;18.244;2023-05-24T20:06:38;17.10;;;9.50;;
57327;SDS011;43162;51.040;18.244;2023-05-24T20:09:03;16.90;;;10.30;;
57327;SDS011;43162;51.040;18.244;2023-05-24T20:11:29;17.50;;;11.10;;
57327;SDS011;43162;51.040;18.244;2023-05-24T20:13:55;17.60;;;9.20;;
57327;SDS011;43162;51.040;18.244;2023-05-24T20:16:21;11.90;;;7.60;;
57327;SDS011;43162;51.040;18.244;2023-05-24T20:18:46;13.20;;;7.70;;
57327;SDS011;43162;51.040;18.244;2023-05-24T20:21:12;12.80;;;7.90;;
57327;SDS011;43162;51.040;18.244;2023-05-24T20:23:39;14.50;;;8.00;;
57327;SDS011;43162;51.040;18.244;2023-05-24T20:26:04;11.90;;;7.90;;
57327;SDS011;43162;51.040;18.244;2023-05-24T20:28:30;15.80;;;8.60;;
57327;SDS011;43162;51.040;18.244;2023-05-24T20:30:55;13.50;;;8.40;;
57327;SDS011;43162;51.040;18.244;2023-05-24T20:33:21;10.80;;;8.00;;
57327;SDS011;43162;51.040;18.244;2023-05-24T20:35:46;11.20;;;7.40;;
57327;SDS011;43162;51.040;18.244;2023-05-24T20:38:12;12.00;;;7.70;;
57327;SDS011;43162;51.040;18.244;2023-05-24T20:40:38;12.00;;;8.00;;
57327;SDS011;43162;51.040;18.244;2023-05-24T20:43:03;13.10;;;8.30;;
57327;SDS011;43162;51.040;18.244;2023-05-24T20:45:29;10.90;;;7.50;;
57327;SDS011;43162;51.040;18.244;2023-05-24T20:47:55;10.50;;;7.20;;
57327;SDS011;43162;51.040;18.244;2023-05-24T20:50:20;13.30;;;7.80;;
57327;SDS011;43162;51.040;18.244;2023-05-24T20:52:46;10.30;;;7.10;;
57327;SDS011;43162;51.040;18.244;2023-05-24T20:55:11;9.30;;;6.80;;
57327;SDS011;43162;51.040;18.244;2023-05-24T20:57:37;14.40;;;7.80;;
57327;SDS011;43162;51.040;18.244;2023-05-24T21:00:03;16.40;;;8.50;;
57327;SDS011;43162;51.040;18.244;2023-05-24T21:02:29;12.10;;;7.70;;
57327;SDS011;43162;51.040;18.244;2023-05-24T21:04:55;12.60;;;8.20;;
57327;SDS011;43162;51.040;18.244;2023-05-24T21:07:21;13.30;;;7.90;;
57327;SDS011;43162;51.040;18.244;2023-05-24T21:09:47;16.20;;;8.30;;
57327;SDS011;43162;51.040;18.244;2023-05-24T21:12:13;12.10;;;8.00;;
57327;SDS011;43162;51.040;18.244;2023-05-24T21:14:39;15.30;;;7.80;;
57327;SDS011;43162;51.040;18.244;2023-05-24T21:17:05;14.40;;;8.70;;
57327;SDS011;43162;51.040;18.244;2023-05-24T21:19:31;12.00;;;7.60;;
57327;SDS011;43162;51.040;18.244;2023-05-24T21:21:56;13.30;;;7.90;;
57327;SDS011;43162;51.040;18.244;2023-05-24T21:24:22;12.80;;;8.80;;
57327;SDS011;43162;51.040;18.244;2023-05-24T21:26:47;14.10;;;8.30;;
57327;SDS011;43162;51.040;18.244;2023-05-24T21:29:13;18.00;;;8.40;;
57327;SDS011;43162;51.040;18.244;2023-05-24T21:31:39;14.90;;;8.30;;
57327;SDS011;43162;51.040;18.244;2023-05-24T21:34:05;15.80;;;7.80;;
57327;SDS011;43162;51.040;18.244;2023-05-24T21:36:31;12.90;;;8.40;;
57327;SDS011;43162;51.040;18.244;2023-05-24T21:38:57;22.70;;;8.10;;
57327;SDS011;43162;51.040;18.244;2023-05-24T21:41:23;13.30;;;7.90;;
57327;SDS011;43162;51.040;18.244;2023-05-24T21:43:48;16.30;;;8.80;;
57327;SDS011;43162;51.040;18.244;2023-05-24T21:46:14;13.50;;;7.20;;
57327;SDS011;43162;51.040;18.244;2023-05-24T21:48:40;15.00;;;7.90;;
57327;SDS011;43162;51.040;18.244;2023-05-24T21:51:05;13.40;;;8.00;;
57327;SDS011;43162;51.040;18.244;2023-05-24T21:53:31;12.20;;;8.50;;
57327;SDS011;43162;51.040;18.244;2023-05-24T21:55:59;15.90;;;8.70;;
57327;SDS011;43162;51.040;18.244;2023-05-24T21:58:25;12.80;;;7.60;;
57327;SDS011;43162;51.040;18.244;2023-05-24T22:00:51;14.00;;;8.30;;
57327;SDS011;43162;51.040;18.244;2023-05-24T22:03:16;14.40;;;8.50;;
57327;SDS011;43162;51.040;18.244;2023-05-24T22:05:41;12.30;;;8.50;;
57327;SDS011;43162;51.040;18.244;2023-05-24T22:08:07;14.70;;;9.60;;
57327;SDS011;43162;51.040;18.244;2023-05-24T22:10:32;11.50;;;7.60;;
57327;SDS011;43162;51.040;18.244;2023-05-24T22:12:58;13.70;;;8.10;;
57327;SDS011;43162;51.040;18.244;2023-05-24T22:15:24;14.40;;;8.70;;
57327;SDS011;43162;51.040;18.244;2023-05-24T22:17:51;12.50;;;8.00;;
57327;SDS011;43162;51.040;18.244;2023-05-24T22:20:16;13.70;;;8.10;;
57327;SDS011;43162;51.040;18.244;2023-05-24T22:22:43;15.00;;;9.60;;
57327;SDS011;43162;51.040;18.244;2023-05-24T22:25:14;14.60;;;9.50;;
57327;SDS011;43162;51.040;18.244;2023-05-24T22:27:42;12.70;;;8.30;;
57327;SDS011;43162;51.040;18.244;2023-05-24T22:30:08;14.40;;;9.70;;
57327;SDS011;43162;51.040;18.244;2023-05-24T22:32:34;16.90;;;9.30;;
57327;SDS011;43162;51.040;18.244;2023-05-24T22:34:59;16.00;;;8.50;;
57327;SDS011;43162;51.040;18.244;2023-05-24T22:37:25;14.50;;;9.30;;
57327;SDS011;43162;51.040;18.244;2023-05-24T22:39:50;9.90;;;7.50;;
57327;SDS011;43162;51.040;18.244;2023-05-24T22:42:16;13.90;;;9.50;;
57327;SDS011;43162;51.040;18.244;2023-05-24T22:44:41;16.90;;;9.10;;
57327;SDS011;43162;51.040;18.244;2023-05-24T22:47:07;15.60;;;8.90;;
57327;SDS011;43162;51.040;18.244;2023-05-24T22:49:33;18.70;;;9.00;;
57327;SDS011;43162;51.040;18.244;2023-05-24T22:51:58;17.10;;;10.10;;
57327;SDS011;43162;51.040;18.244;2023-05-24T22:54:24;12.80;;;8.30;;
57327;SDS011;43162;51.040;18.244;2023-05-24T22:56:50;12.10;;;7.60;;
57327;SDS011;43162;51.040;18.244;2023-05-24T22:59:16;15.60;;;8.70;;
57327;SDS011;43162;51.040;18.244;2023-05-24T23:01:41;20.10;;;9.40;;
57327;SDS011;43162;51.040;18.244;2023-05-24T23:04:09;20.60;;;9.30;;
57327;SDS011;43162;51.040;18.244;2023-05-24T23:06:38;14.50;;;9.30;;
57327;SDS011;43162;51.040;18.244;2023-05-24T23:09:06;13.40;;;8.70;;
57327;SDS011;43162;51.040;18.244;2023-05-24T23:11:32;13.60;;;9.50;;
57327;SDS011;43162;51.040;18.244;2023-05-24T23:13:58;14.90;;;9.30;;
57327;SDS011;43162;51.040;18.244;2023-05-24T23:16:27;14.50;;;9.70;;
57327;SDS011;43162;51.040;18.244;2023-05-24T23:18:53;20.90;;;9.40;;
57327;SDS011;43162;51.040;18.244;2023-05-24T23:21:19;16.70;;;9.80;;
57327;SDS011;43162;51.040;18.244;2023-05-24T23:23:46;16.60;;;8.50;;
57327;SDS011;43162;51.040;18.244;2023-05-24T23:26:13;20.50;;;9.50;;
57327;SDS011;43162;51.040;18.244;2023-05-24T23:28:39;12.20;;;8.80;;
57327;SDS011;43162;51.040;18.244;2023-05-24T23:31:05;12.50;;;8.60;;
57327;SDS011;43162;51.040;18.244;2023-05-24T23:33:30;19.60;;;9.70;;
57327;SDS011;43162;51.040;18.244;2023-05-24T23:35:56;17.90;;;9.70;;
57327;SDS011;43162;51.040;18.244;2023-05-24T23:38:21;12.90;;;9.10;;
57327;SDS011;43162;51.040;18.244;2023-05-24T23:40:47;15.30;;;9.30;;
57327;SDS011;43162;51.040;18.244;2023-05-24T23:43:12;18.90;;;9.70;;
57327;SDS011;43162;51.040;18.244;2023-05-24T23:45:38;13.40;;;9.40;;
57327;SDS011;43162;51.040;18.244;2023-05-24T23:48:03;16.60;;;10.00;;
57327;SDS011;43162;51.040;18.244;2023-05-24T23:50:29;13.30;;;9.20;;
57327;SDS011;43162;51.040;18.244;2023-05-24T23:52:54;17.30;;;9.50;;
57327;SDS011;43162;51.040;18.244;2023-05-24T23:55:20;18.90;;;10.10;;
57327;SDS011;43162;51.040;18.244;2023-05-24T23:57:46;19.30;;;9.90;;
